createdAt,value
2023-03-01T00:03:02.259Z,14.15
2023-03-01T00:06:06.052Z,9.50
2023-03-01T00:09:09.523Z,9.50
2023-03-01T00:12:14.268Z,6.40
2023-03-01T00:15:17.589Z,11.55
2023-03-01T00:18:21.056Z,7.47
2023-03-01T00:21:25.314Z,8.55
2023-03-01T00:24:28.743Z,4.65
2023-03-01T00:27:33.502Z,7.90
2023-03-01T00:30:37.153Z,6.70
2023-03-01T00:33:40.825Z,7.90
2023-03-01T00:36:44.204Z,8.35
2023-03-01T00:39:47.567Z,7.80
2023-03-01T00:42:52.381Z,8.75
2023-03-01T00:45:56.257Z,6.40
2023-03-01T00:49:02.822Z,6.82
2023-03-01T00:52:06.445Z,7.40
2023-03-01T00:55:10.243Z,5.05
2023-03-01T00:58:15.036Z,5.40
2023-03-01T01:01:20.240Z,6.75
2023-03-01T01:04:23.777Z,5.72
2023-03-01T01:07:27.281Z,5.32
2023-03-01T01:10:30.679Z,7.63
2023-03-01T01:13:35.848Z,4.47
2023-03-01T01:16:39.330Z,7.25
2023-03-01T01:19:42.735Z,5.40
2023-03-01T01:22:46.393Z,3.38
2023-03-01T01:25:49.794Z,5.65
2023-03-01T01:28:55.273Z,5.68
2023-03-01T01:31:58.712Z,7.20
2023-03-01T01:35:02.124Z,6.72
2023-03-01T01:38:05.613Z,4.97
2023-03-01T01:41:09.561Z,4.07
2023-03-01T01:44:15.854Z,6.35
2023-03-01T01:47:20.927Z,4.65
2023-03-01T01:50:25.005Z,5.15
2023-03-01T01:53:30.070Z,5.85
2023-03-01T01:56:33.475Z,7.05
2023-03-01T01:59:39.039Z,6.70
2023-03-01T02:02:43.785Z,8.33
2023-03-01T02:05:55.200Z,6.20
2023-03-01T02:09:01.142Z,5.13
2023-03-01T02:12:05.381Z,6.40
2023-03-01T02:15:10.569Z,8.80
2023-03-01T02:18:17.571Z,4.90
2023-03-01T02:21:29.786Z,5.35
2023-03-01T02:24:38.506Z,4.57
2023-03-01T02:27:49.994Z,5.73
2023-03-01T02:31:13.842Z,10.68
2023-03-01T02:34:18.915Z,4.72
2023-03-01T02:37:25.522Z,8.35
2023-03-01T02:40:30.450Z,5.25
2023-03-01T02:43:34.349Z,4.75
2023-03-01T02:46:44.773Z,6.05
2023-03-01T02:49:48.384Z,6.72
2023-03-01T02:52:56.029Z,4.97
2023-03-01T02:56:00.826Z,6.72
2023-03-01T02:59:04.534Z,5.47
2023-03-01T03:02:10.645Z,6.50
2023-03-01T03:05:16.560Z,5.95
2023-03-01T03:08:24.708Z,6.20
2023-03-01T03:11:28.925Z,9.10
2023-03-01T03:14:35.729Z,7.22
2023-03-01T03:17:41.013Z,9.80
2023-03-01T03:20:45.683Z,2.93
2023-03-01T03:23:49.086Z,6.27
2023-03-01T03:26:52.389Z,5.88
2023-03-01T03:29:55.738Z,5.70
2023-03-01T03:33:00.954Z,11.75
2023-03-01T03:36:04.377Z,6.82
2023-03-01T03:39:07.844Z,7.38
2023-03-01T03:42:11.438Z,5.72
2023-03-01T03:45:14.875Z,8.02
2023-03-01T03:48:19.918Z,6.95
2023-03-01T03:51:24.083Z,6.60
2023-03-01T03:54:27.440Z,6.07
2023-03-01T03:57:30.832Z,6.28
2023-03-01T04:00:34.303Z,5.70
2023-03-01T04:03:39.052Z,6.80
2023-03-01T04:06:42.607Z,4.80
2023-03-01T04:09:46.457Z,5.43
2023-03-01T04:12:49.939Z,10.75
2023-03-01T04:15:53.657Z,8.65
2023-03-01T04:19:00.492Z,8.52
2023-03-01T04:22:08.330Z,7.63
2023-03-01T04:25:14.918Z,9.70
2023-03-01T04:28:18.619Z,7.03
2023-03-01T04:31:22.706Z,7.25
2023-03-01T04:34:28.507Z,5.75
2023-03-01T04:37:31.958Z,8.98
2023-03-01T04:40:35.290Z,7.53
2023-03-01T04:43:39.251Z,10.68
2023-03-01T04:46:42.743Z,6.78
2023-03-01T04:49:47.464Z,10.60
2023-03-01T04:52:50.817Z,6.50
2023-03-01T04:55:54.406Z,9.55
2023-03-01T04:58:57.813Z,11.70
2023-03-01T05:02:02.226Z,7.50
2023-03-01T05:05:07.372Z,5.55
2023-03-01T05:08:18.235Z,6.25
2023-03-01T05:11:21.575Z,7.57
2023-03-01T05:14:25.217Z,5.65
2023-03-01T05:17:28.664Z,5.72
2023-03-01T05:20:33.410Z,6.07
2023-03-01T05:23:37.030Z,12.10
2023-03-01T05:26:41.466Z,3.53
2023-03-01T05:29:45.205Z,4.85
2023-03-01T05:32:49.731Z,7.72
2023-03-01T05:35:54.717Z,8.13
2023-03-01T05:38:58.190Z,3.67
2023-03-01T05:42:02.816Z,3.88
2023-03-01T05:45:10.429Z,4.22
2023-03-01T05:48:15.107Z,8.80
2023-03-01T05:51:19.842Z,4.63
2023-03-01T05:54:23.615Z,4.78
2023-03-01T05:57:27.005Z,5.80
2023-03-01T06:00:30.945Z,4.55
2023-03-01T06:03:35.080Z,5.07
2023-03-01T06:06:40.365Z,8.93
2023-03-01T06:09:43.785Z,8.07
2023-03-01T06:12:47.168Z,12.63
2023-03-01T06:15:51.189Z,5.43
2023-03-01T06:18:54.484Z,9.80
2023-03-01T06:21:59.201Z,6.13
2023-03-01T06:25:02.625Z,5.95
2023-03-01T06:28:06.444Z,9.43
2023-03-01T06:31:10.429Z,6.22
2023-03-01T06:34:14.503Z,14.50
2023-03-01T06:37:20.512Z,11.30
2023-03-01T06:40:29.806Z,9.95
2023-03-01T06:43:38.449Z,6.75
2023-03-01T06:46:42.049Z,6.70
2023-03-01T06:49:45.411Z,7.93
2023-03-01T06:52:50.098Z,7.68
2023-03-01T06:55:56.457Z,4.45
2023-03-01T06:59:00.034Z,11.65
2023-03-01T07:02:03.468Z,5.55
2023-03-01T07:05:07.293Z,5.47
2023-03-01T07:08:12.050Z,6.82
2023-03-01T07:11:15.591Z,7.53
2023-03-01T07:14:20.719Z,9.77
2023-03-01T07:17:24.215Z,7.18
2023-03-01T07:20:27.647Z,7.97
2023-03-01T07:23:32.417Z,6.35
2023-03-01T07:26:35.939Z,8.57
2023-03-01T07:29:39.500Z,8.30
2023-03-01T07:32:43.081Z,9.40
2023-03-01T07:35:47.404Z,9.00
2023-03-01T07:38:52.423Z,7.00
2023-03-01T07:41:56.061Z,12.32
2023-03-01T07:44:59.917Z,8.95
2023-03-01T07:48:03.526Z,10.23
2023-03-01T07:51:07.983Z,16.55
2023-03-01T07:54:13.307Z,10.60
2023-03-01T07:57:18.761Z,9.88
2023-03-01T08:00:23.409Z,10.80
2023-03-01T08:03:27.844Z,12.13
2023-03-01T08:06:32.192Z,31.23
2023-03-01T08:09:38.691Z,25.60
2023-03-01T08:12:42.129Z,25.60
2023-03-01T08:15:45.727Z,18.95
2023-03-01T08:18:49.145Z,14.18
2023-03-01T08:21:52.739Z,12.98
2023-03-01T08:24:57.550Z,10.40
2023-03-01T08:28:00.919Z,11.90
2023-03-01T08:31:04.387Z,13.80
2023-03-01T08:34:09.246Z,10.70
2023-03-01T08:37:12.886Z,13.32
2023-03-01T08:40:17.804Z,9.10
2023-03-01T08:43:22.781Z,9.32
2023-03-01T08:46:26.290Z,10.35
2023-03-01T08:49:29.592Z,9.95
2023-03-01T08:52:34.803Z,10.80
2023-03-01T08:55:39.618Z,10.68
2023-03-01T08:58:45.854Z,12.73
2023-03-01T09:01:49.323Z,19.77
2023-03-01T09:04:52.889Z,19.33
2023-03-01T09:07:56.352Z,10.65
2023-03-01T09:11:01.036Z,13.50
2023-03-01T09:14:07.760Z,11.68
2023-03-01T09:17:11.307Z,11.88
2023-03-01T09:20:14.785Z,13.70
2023-03-01T09:23:18.439Z,17.75
2023-03-01T09:26:24.338Z,13.38
2023-03-01T09:29:27.805Z,13.00
2023-03-01T09:32:32.944Z,12.95
2023-03-01T09:35:36.335Z,12.15
2023-03-01T09:38:39.706Z,12.82
2023-03-01T09:41:48.775Z,11.68
2023-03-01T09:44:54.106Z,13.13
2023-03-01T09:47:58.260Z,15.52
2023-03-01T09:51:03.371Z,15.20
2023-03-01T09:54:09.372Z,12.48
2023-03-01T09:57:29.875Z,13.02
2023-03-01T10:00:37.488Z,8.85
2023-03-01T10:03:44.316Z,12.50
2023-03-01T10:06:49.683Z,9.98
2023-03-01T10:09:53.011Z,15.60
2023-03-01T10:12:58.680Z,11.02
2023-03-01T10:16:04.433Z,11.95
2023-03-01T10:19:08.740Z,10.68
2023-03-01T10:22:16.283Z,12.15
2023-03-01T10:25:23.479Z,10.15
2023-03-01T10:28:33.489Z,10.43
2023-03-01T10:31:41.346Z,13.05
2023-03-01T10:34:44.852Z,15.52
2023-03-01T10:38:01.134Z,10.02
2023-03-01T10:41:07.589Z,9.75
2023-03-01T10:44:32.409Z,13.43
2023-03-01T10:47:35.960Z,12.77
2023-03-01T10:50:42.261Z,9.48
2023-03-01T10:53:50.481Z,9.55
2023-03-01T10:56:56.399Z,11.98
2023-03-01T11:00:22.084Z,10.10
2023-03-01T11:03:26.148Z,10.65
2023-03-01T11:06:29.585Z,9.88
2023-03-01T11:09:38.395Z,11.35
2023-03-01T11:12:42.010Z,11.60
2023-03-01T11:16:00.811Z,11.70
2023-03-01T11:19:16.390Z,8.35
2023-03-01T11:22:21.628Z,11.05
2023-03-01T11:25:27.166Z,12.48
2023-03-01T11:28:31.699Z,10.88
2023-03-01T11:31:40.473Z,10.82
2023-03-01T11:34:51.072Z,7.97
2023-03-01T11:38:01.838Z,16.20
2023-03-01T11:41:08.844Z,7.13
2023-03-01T11:44:17.329Z,10.63
2023-03-01T11:47:32.888Z,8.07
2023-03-01T11:50:42.919Z,7.82
2023-03-01T11:53:54.093Z,10.30
2023-03-01T11:56:58.371Z,8.10
2023-03-01T12:00:20.309Z,10.75
2023-03-01T12:03:31.295Z,9.50
2023-03-01T12:06:45.788Z,6.90
2023-03-01T12:09:59.181Z,10.38
2023-03-01T12:13:20.599Z,7.75
2023-03-01T12:16:39.039Z,7.93
2023-03-01T12:19:54.584Z,7.00
2023-03-01T12:23:19.753Z,7.93
2023-03-01T12:26:28.778Z,5.95
2023-03-01T12:29:34.431Z,5.43
2023-03-01T12:32:43.011Z,5.13
2023-03-01T12:36:01.313Z,6.60
2023-03-01T12:39:12.791Z,6.82
2023-03-01T12:42:23.634Z,7.57
2023-03-01T12:45:51.096Z,7.60
2023-03-01T12:49:01.295Z,7.32
2023-03-01T12:52:07.114Z,8.52
2023-03-01T12:55:20.872Z,7.88
2023-03-01T12:58:34.156Z,12.32
2023-03-01T13:01:47.643Z,9.85
2023-03-01T13:05:04.843Z,7.03
2023-03-01T13:08:11.456Z,11.30
2023-03-01T13:11:20.780Z,8.75
2023-03-01T13:14:40.192Z,7.28
2023-03-01T13:17:45.689Z,7.60
2023-03-01T13:20:50.455Z,6.10
2023-03-01T13:23:53.888Z,7.05
2023-03-01T13:27:14.844Z,7.55
2023-03-01T13:30:42.849Z,6.40
2023-03-01T13:33:50.725Z,6.43
2023-03-01T13:36:54.325Z,7.22
2023-03-01T13:39:59.826Z,7.65
2023-03-01T13:43:23.104Z,7.80
2023-03-01T13:46:28.135Z,5.13
2023-03-01T13:49:45.954Z,6.05
2023-03-01T13:52:52.940Z,4.95
2023-03-01T13:55:59.775Z,4.88
2023-03-01T13:59:05.135Z,4.30
2023-03-01T14:02:15.124Z,4.43
2023-03-01T14:05:19.412Z,4.13
2023-03-01T14:08:24.864Z,3.20
2023-03-01T14:11:43.379Z,5.50
2023-03-01T14:14:49.611Z,3.50
2023-03-01T14:17:58.531Z,3.90
2023-03-01T14:21:03.757Z,3.25
2023-03-01T14:24:07.528Z,4.40
2023-03-01T14:27:13.947Z,8.32
2023-03-01T14:30:18.448Z,4.68
2023-03-01T14:33:25.490Z,6.65
2023-03-01T14:36:29.401Z,5.20
2023-03-01T14:39:34.944Z,4.53
2023-03-01T14:42:39.091Z,6.50
2023-03-01T14:45:43.273Z,6.20
2023-03-01T14:48:48.073Z,6.07
2023-03-01T14:51:54.246Z,6.93
2023-03-01T14:54:58.233Z,4.13
2023-03-01T14:58:03.718Z,8.45
2023-03-01T15:01:09.230Z,6.00
2023-03-01T15:04:16.259Z,5.18
2023-03-01T15:07:20.136Z,4.25
2023-03-01T15:10:24.310Z,5.45
2023-03-01T15:13:28.636Z,2.92
2023-03-01T15:16:33.183Z,5.40
2023-03-01T15:19:38.115Z,3.65
2023-03-01T15:22:41.417Z,5.45
2023-03-01T15:25:47.345Z,3.13
2023-03-01T15:28:52.914Z,5.90
2023-03-01T15:31:57.991Z,2.45
2023-03-01T15:35:04.076Z,2.35
2023-03-01T15:38:26.204Z,3.00
2023-03-01T15:41:31.833Z,1.75
2023-03-01T15:44:43.306Z,3.63
2023-03-01T15:47:50.902Z,3.47
2023-03-01T16:30:30.118Z,5.72
2023-03-01T16:33:34.787Z,6.70
2023-03-01T16:36:38.110Z,3.85
2023-03-01T16:39:42.304Z,10.43
2023-03-01T16:42:45.830Z,4.47
2023-03-01T16:45:50.476Z,5.20
2023-03-01T16:48:54.300Z,4.80
2023-03-01T16:51:57.659Z,7.32
2023-03-01T16:55:00.971Z,6.68
2023-03-01T16:58:05.289Z,5.57
2023-03-01T17:01:12.601Z,11.10
2023-03-01T17:04:16.207Z,6.30
2023-03-01T17:07:20.327Z,7.03
2023-03-01T17:10:23.632Z,9.35
2023-03-01T17:13:27.099Z,5.30
2023-03-01T17:16:31.965Z,8.95
2023-03-01T17:19:40.637Z,6.35
2023-03-01T17:22:44.083Z,6.07
2023-03-01T17:25:47.734Z,8.02
2023-03-01T17:28:52.267Z,7.78
2023-03-01T17:32:32.753Z,11.63
